createdAt,value
2022-10-22T00:00:14.018Z,16.86
2022-10-22T00:01:34.981Z,13.96
2022-10-22T00:02:56.412Z,17.73
2022-10-22T00:04:17.363Z,14.64
2022-10-22T00:05:38.357Z,15.97
2022-10-22T00:06:59.702Z,15.47
2022-10-22T00:08:20.982Z,16.61
2022-10-22T00:09:41.970Z,16.92
2022-10-22T00:11:11.236Z,14.51
2022-10-22T00:12:32.354Z,14.89
2022-10-22T00:13:53.807Z,16.81
2022-10-22T00:15:15.232Z,15.73
2022-10-22T00:16:36.852Z,17.67
2022-10-22T00:17:58.545Z,16.61
2022-10-22T00:19:19.530Z,15.54
2022-10-22T00:20:40.952Z,15.36
2022-10-22T00:22:02.205Z,13.01
2022-10-22T00:23:23.268Z,15.04
2022-10-22T00:24:44.352Z,13.38
2022-10-22T00:26:05.902Z,14.68
2022-10-22T00:27:27.189Z,13.89
2022-10-22T00:28:48.475Z,14.41
2022-10-22T00:30:10.597Z,13.19
2022-10-22T00:31:32.092Z,13.71
2022-10-22T00:32:53.375Z,17.48
2022-10-22T00:34:18.179Z,14.82
2022-10-22T00:35:39.550Z,15.47
2022-10-22T00:37:00.753Z,13.03
2022-10-22T00:38:21.944Z,14.25
2022-10-22T00:39:42.873Z,14.76
2022-10-22T00:41:04.786Z,12.46
2022-10-22T00:42:26.401Z,16.20
2022-10-22T00:45:12.655Z,17.28
2022-10-22T00:46:34.000Z,12.93
2022-10-22T00:47:58.973Z,11.39
2022-10-22T00:49:20.210Z,15.67
2022-10-22T00:50:52.478Z,15.51
2022-10-22T00:52:13.737Z,13.38
2022-10-22T00:54:53.508Z,13.38
2022-10-22T00:56:15.540Z,13.74
2022-10-22T00:57:36.990Z,13.14
2022-10-22T00:58:59.197Z,13.24
2022-10-22T01:00:20.732Z,13.11
2022-10-22T01:01:41.882Z,14.84
2022-10-22T01:03:03.404Z,14.63
2022-10-22T01:04:24.712Z,15.72
2022-10-22T01:07:11.826Z,13.83
2022-10-22T01:08:39.691Z,15.37
2022-10-22T01:10:19.842Z,15.68
2022-10-22T01:13:45.482Z,12.52
2022-10-22T01:15:10.417Z,13.74
2022-10-22T01:16:52.094Z,11.65
2022-10-22T01:18:17.045Z,13.79
2022-10-22T01:19:58.474Z,13.75
2022-10-22T01:22:44.656Z,13.31
2022-10-22T01:24:24.109Z,13.55
2022-10-22T01:27:36.456Z,17.74
2022-10-22T01:29:04.482Z,16.06
2022-10-22T01:30:25.557Z,14.90
2022-10-22T01:31:50.436Z,12.48
2022-10-22T01:33:13.257Z,13.75
2022-10-22T01:34:34.697Z,12.35
2022-10-22T01:35:59.023Z,17.82
2022-10-22T01:37:21.214Z,15.53
2022-10-22T01:38:42.812Z,13.57
2022-10-22T01:40:05.242Z,12.62
2022-10-22T01:42:38.135Z,15.92
2022-10-22T01:43:59.643Z,14.88
2022-10-22T01:45:21.270Z,13.91
2022-10-22T01:46:42.312Z,13.08
2022-10-22T01:48:32.850Z,18.48
2022-10-22T01:50:15.727Z,15.25
2022-10-22T01:51:57.085Z,14.22
2022-10-22T01:53:25.228Z,10.14
2022-10-22T01:54:51.582Z,11.21
2022-10-22T01:58:03.777Z,15.52
2022-10-22T01:59:46.932Z,14.84
2022-10-22T02:01:20.680Z,14.14
2022-10-22T02:02:57.917Z,15.08
2022-10-22T02:04:29.930Z,14.35
2022-10-22T02:05:55.048Z,12.63
2022-10-22T02:07:17.817Z,14.99
2022-10-22T02:08:38.973Z,11.68
2022-10-22T02:10:00.256Z,14.80
2022-10-22T02:11:21.662Z,14.35
2022-10-22T02:12:43.611Z,13.28
2022-10-22T02:14:05.034Z,10.89
2022-10-22T02:15:26.952Z,16.81
2022-10-22T02:16:48.799Z,14.47
2022-10-22T02:18:10.102Z,14.89
2022-10-22T02:20:53.194Z,18.89
2022-10-22T02:22:14.527Z,13.84
2022-10-22T02:23:35.484Z,15.36
2022-10-22T02:24:57.102Z,16.16
2022-10-22T02:26:33.975Z,14.91
2022-10-22T02:28:16.266Z,14.23
2022-10-22T02:29:40.180Z,18.46
2022-10-22T02:31:04.995Z,17.78
2022-10-22T02:32:28.270Z,17.10
2022-10-22T02:35:14.648Z,17.44
2022-10-22T02:36:37.118Z,13.77
2022-10-22T02:37:58.552Z,12.63
2022-10-22T02:39:19.772Z,15.92
2022-10-22T02:40:40.741Z,10.79
2022-10-22T02:42:02.037Z,13.47
2022-10-22T02:43:24.255Z,19.84
2022-10-22T02:44:45.270Z,14.27
2022-10-22T02:46:06.779Z,17.03
2022-10-22T02:47:28.090Z,13.36
2022-10-22T02:48:49.329Z,14.92
2022-10-22T02:50:10.722Z,15.32
2022-10-22T02:51:32.230Z,13.78
2022-10-22T02:52:53.694Z,13.12
2022-10-22T02:54:14.939Z,14.25
2022-10-22T02:55:35.914Z,37.19
2022-10-22T02:56:57.421Z,30.45
2022-10-22T02:58:18.882Z,30.83
2022-10-22T02:59:39.881Z,25.28
2022-10-22T03:01:01.073Z,41.42
2022-10-22T03:02:22.298Z,130.94
2022-10-22T03:03:43.815Z,108.94
2022-10-22T03:05:05.825Z,20.09
2022-10-22T03:06:27.049Z,358.37
2022-10-22T03:07:48.090Z,246.08
2022-10-22T03:09:09.191Z,613.17
2022-10-22T03:10:30.626Z,302.01
2022-10-22T03:11:52.117Z,84.92
2022-10-22T03:13:13.263Z,98.90
2022-10-22T03:14:34.948Z,82.46
2022-10-22T03:15:57.897Z,105.73
2022-10-22T03:18:39.946Z,39.31
2022-10-22T03:20:01.440Z,24.70
2022-10-22T03:22:42.229Z,57.88
2022-10-22T03:24:07.462Z,48.06
2022-10-22T03:25:28.653Z,34.70
2022-10-22T03:26:50.304Z,85.89
2022-10-22T03:28:11.542Z,43.44
2022-10-22T03:29:33.516Z,32.13
2022-10-22T03:30:55.863Z,29.18
2022-10-22T03:32:17.123Z,13.96
2022-10-22T03:33:38.618Z,22.19
2022-10-22T03:36:21.487Z,14.70
2022-10-22T03:37:43.112Z,13.05
2022-10-22T03:39:04.624Z,13.77
2022-10-22T03:40:25.902Z,18.18
2022-10-22T03:41:47.721Z,25.89
2022-10-22T03:43:08.771Z,24.91
2022-10-22T03:44:29.718Z,20.97
2022-10-22T03:45:52.879Z,27.59
2022-10-22T03:47:14.281Z,18.21
2022-10-22T03:48:35.564Z,38.44
2022-10-22T03:49:56.501Z,37.95
2022-10-22T03:51:18.077Z,20.92
2022-10-22T03:52:39.227Z,24.89
2022-10-22T03:54:00.445Z,32.91
2022-10-22T03:55:21.774Z,94.50
2022-10-22T03:56:43.400Z,105.82
2022-10-22T03:58:04.881Z,47.64
2022-10-22T03:59:26.098Z,35.46
2022-10-22T04:00:47.682Z,43.94
2022-10-22T04:02:09.178Z,61.73
2022-10-22T04:03:30.156Z,44.42
2022-10-22T04:04:51.708Z,32.93
2022-10-22T04:06:13.767Z,25.33
2022-10-22T04:07:35.043Z,94.09
2022-10-22T04:08:56.287Z,74.48
2022-10-22T04:10:17.816Z,63.72
2022-10-22T04:11:40.906Z,42.87
2022-10-22T04:13:02.010Z,45.59
2022-10-22T04:14:22.973Z,45.42
2022-10-22T04:17:07.322Z,55.09
2022-10-22T04:18:29.484Z,37.16
2022-10-22T04:19:51.024Z,24.95
2022-10-22T04:21:13.173Z,18.59
2022-10-22T04:22:34.534Z,23.44
2022-10-22T04:23:55.943Z,17.63
2022-10-22T04:25:17.595Z,25.08
2022-10-22T04:26:38.935Z,30.02
2022-10-22T04:28:00.462Z,21.06
2022-10-22T04:30:39.248Z,18.30
2022-10-22T04:32:00.536Z,28.09
2022-10-22T04:33:21.924Z,19.74
2022-10-22T04:34:43.470Z,23.82
2022-10-22T04:37:19.480Z,20.38
2022-10-22T04:38:41.564Z,17.12
2022-10-22T04:40:03.898Z,16.40
2022-10-22T04:41:29.863Z,15.56
2022-10-22T04:42:51.349Z,18.29
2022-10-22T04:44:16.112Z,22.18
2022-10-22T04:45:39.656Z,20.04
2022-10-22T04:47:01.307Z,13.73
2022-10-22T04:48:23.935Z,19.26
2022-10-22T04:49:45.162Z,16.64
2022-10-22T04:51:07.137Z,19.60
2022-10-22T04:52:28.607Z,15.57
2022-10-22T04:53:50.136Z,18.26
2022-10-22T04:55:14.070Z,18.56
2022-10-22T04:56:35.041Z,16.99
2022-10-22T04:57:56.228Z,24.88
2022-10-22T04:59:17.764Z,16.29
2022-10-22T05:00:38.915Z,14.74
2022-10-22T05:02:00.533Z,15.04
2022-10-22T05:03:24.392Z,16.27
2022-10-22T05:04:45.429Z,16.49
2022-10-22T05:06:07.321Z,14.60
2022-10-22T05:07:28.470Z,18.97
2022-10-22T05:10:08.763Z,23.11
2022-10-22T05:11:32.917Z,12.96
2022-10-22T05:12:56.962Z,17.48
2022-10-22T05:14:19.878Z,16.09
2022-10-22T05:15:41.932Z,23.32
2022-10-22T05:17:03.348Z,28.66
2022-10-22T05:18:24.867Z,26.87
2022-10-22T05:19:46.303Z,23.02
2022-10-22T05:22:23.247Z,24.46
2022-10-22T05:23:46.575Z,23.16
2022-10-22T05:25:08.329Z,31.57
2022-10-22T05:26:29.938Z,27.45
2022-10-22T05:27:51.058Z,20.98
2022-10-22T05:29:12.982Z,42.54
2022-10-22T05:30:33.923Z,23.52
2022-10-22T05:31:55.551Z,19.97
2022-10-22T05:33:19.645Z,20.80
2022-10-22T05:36:00.996Z,13.44
2022-10-22T05:37:22.735Z,17.81
2022-10-22T05:38:44.210Z,24.71
2022-10-22T05:40:19.100Z,19.63
2022-10-22T05:41:29.439Z,18.36
2022-10-22T05:42:51.235Z,24.57
2022-10-22T05:44:12.770Z,20.63
2022-10-22T05:45:40.626Z,22.48
2022-10-22T05:47:01.645Z,23.12
2022-10-22T05:48:22.889Z,21.79
2022-10-22T05:49:44.757Z,23.08
2022-10-22T05:51:10.410Z,29.42
2022-10-22T05:52:31.800Z,21.37
2022-10-22T05:53:57.149Z,20.87
2022-10-22T05:55:18.335Z,19.76
2022-10-22T05:56:39.891Z,21.92
2022-10-22T05:58:01.350Z,27.69
2022-10-22T05:59:22.496Z,31.34
2022-10-22T06:00:44.145Z,40.54
2022-10-22T06:02:05.824Z,124.72
2022-10-22T06:03:27.079Z,43.42
2022-10-22T06:04:48.557Z,31.92
2022-10-22T06:06:17.261Z,31.63
2022-10-22T06:07:38.730Z,35.26
2022-10-22T06:09:17.659Z,36.72
2022-10-22T06:10:40.385Z,28.24
2022-10-22T06:12:01.631Z,23.42
2022-10-22T06:13:23.023Z,22.94
2022-10-22T06:14:43.935Z,19.49
2022-10-22T06:16:05.421Z,17.40
2022-10-22T06:17:26.410Z,22.57
2022-10-22T06:18:47.408Z,22.12
2022-10-22T06:20:10.383Z,20.81
2022-10-22T06:21:32.499Z,17.89
2022-10-22T06:22:53.535Z,18.91
2022-10-22T06:24:14.549Z,22.25
2022-10-22T06:25:36.031Z,17.06
2022-10-22T06:26:57.801Z,20.44
2022-10-22T06:28:18.809Z,20.73
2022-10-22T06:29:39.820Z,20.81
2022-10-22T06:31:02.086Z,23.84
2022-10-22T06:32:23.830Z,17.72
2022-10-22T06:33:44.857Z,25.13
2022-10-22T06:35:06.931Z,17.81
2022-10-22T06:36:27.882Z,21.83
2022-10-22T06:37:49.418Z,18.13
2022-10-22T06:39:11.907Z,20.48
2022-10-22T06:40:33.620Z,18.43
2022-10-22T06:41:55.225Z,22.39
2022-10-22T06:43:16.739Z,22.52
2022-10-22T06:44:38.138Z,24.76
2022-10-22T06:46:05.259Z,25.42
2022-10-22T06:47:26.422Z,23.18
2022-10-22T06:50:05.945Z,21.40
2022-10-22T06:51:27.052Z,21.08
2022-10-22T06:52:48.253Z,28.90
2022-10-22T06:54:09.911Z,20.07
2022-10-22T06:55:31.014Z,19.10
2022-10-22T06:56:54.265Z,27.69
2022-10-22T06:58:15.611Z,26.34
2022-10-22T06:59:38.913Z,22.61
2022-10-22T07:01:07.314Z,18.79
2022-10-22T07:02:28.427Z,18.98
2022-10-22T07:03:50.199Z,26.39
2022-10-22T07:05:11.175Z,20.89
2022-10-22T07:06:32.525Z,18.37
2022-10-22T07:07:53.557Z,16.93
2022-10-22T07:09:15.131Z,21.57
2022-10-22T07:10:36.492Z,26.16
2022-10-22T07:11:58.211Z,20.16
2022-10-22T07:13:19.416Z,20.68
2022-10-22T07:14:41.749Z,25.21
2022-10-22T07:16:03.637Z,19.10
2022-10-22T07:17:24.659Z,22.05
2022-10-22T07:18:46.969Z,18.31
2022-10-22T07:21:30.959Z,21.31
2022-10-22T07:22:52.255Z,16.96
2022-10-22T07:24:13.541Z,15.10
2022-10-22T07:25:34.532Z,22.53
2022-10-22T07:26:57.312Z,18.95
2022-10-22T07:28:18.815Z,28.17
2022-10-22T07:29:41.281Z,33.32
2022-10-22T07:31:02.541Z,18.78
2022-10-22T07:32:24.238Z,28.67
2022-10-22T07:33:45.483Z,24.04
2022-10-22T07:35:07.529Z,23.55
2022-10-22T07:36:28.851Z,22.94
2022-10-22T07:37:50.124Z,26.23
2022-10-22T07:39:11.246Z,24.20
2022-10-22T07:40:33.181Z,18.92
2022-10-22T07:41:54.777Z,20.62
2022-10-22T07:43:16.300Z,20.43
2022-10-22T07:44:37.713Z,19.66
2022-10-22T07:46:01.101Z,23.64
2022-10-22T07:47:22.398Z,25.06
2022-10-22T07:48:43.590Z,26.13
2022-10-22T07:50:05.853Z,22.08
2022-10-22T07:51:27.183Z,21.58
2022-10-22T07:52:48.425Z,18.00
2022-10-22T07:54:09.957Z,22.14
2022-10-22T07:55:31.675Z,17.90
2022-10-22T07:56:53.130Z,21.36
2022-10-22T07:58:14.345Z,20.57
2022-10-22T07:59:35.743Z,20.63
2022-10-22T08:00:57.841Z,19.84
2022-10-22T08:02:19.197Z,38.52
2022-10-22T08:03:40.162Z,20.44
2022-10-22T08:05:01.251Z,24.93
2022-10-22T08:07:45.590Z,27.44
2022-10-22T08:09:07.229Z,29.28
2022-10-22T08:10:28.857Z,32.79
2022-10-22T08:11:50.059Z,22.67
2022-10-22T08:13:11.534Z,19.44
2022-10-22T08:14:32.527Z,25.92
2022-10-22T08:15:57.574Z,20.38
2022-10-22T08:17:18.849Z,19.42
2022-10-22T08:18:40.265Z,23.17
2022-10-22T08:20:01.635Z,21.55
2022-10-22T08:22:35.455Z,21.87
2022-10-22T08:23:58.877Z,20.69
2022-10-22T08:25:20.411Z,21.93
2022-10-22T08:26:42.186Z,20.39
2022-10-22T08:28:03.509Z,18.12
2022-10-22T08:29:24.982Z,25.96
2022-10-22T08:30:48.329Z,18.61
2022-10-22T08:32:10.025Z,21.31
2022-10-22T08:33:33.816Z,22.72
2022-10-22T08:34:57.683Z,21.72
2022-10-22T08:36:20.402Z,21.64
2022-10-22T08:37:42.047Z,21.21
2022-10-22T08:39:03.893Z,13.66
2022-10-22T08:40:34.016Z,15.28
2022-10-22T08:42:18.714Z,16.61
2022-10-22T08:44:17.007Z,18.51
2022-10-22T08:45:47.826Z,17.91
2022-10-22T08:47:21.613Z,24.93
2022-10-22T08:48:50.262Z,25.51
2022-10-22T08:50:12.457Z,24.27
2022-10-22T08:51:34.536Z,25.88
2022-10-22T08:52:58.792Z,26.79
2022-10-22T08:54:41.812Z,17.84
2022-10-22T08:56:04.449Z,18.51
2022-10-22T08:57:35.157Z,17.80
2022-10-22T08:59:18.610Z,22.11
2022-10-22T09:00:46.127Z,19.62
2022-10-22T09:03:54.282Z,22.07
2022-10-22T09:05:28.527Z,20.58
2022-10-22T09:06:53.601Z,22.04
2022-10-22T09:08:17.870Z,19.61
2022-10-22T09:09:41.790Z,20.69
2022-10-22T09:12:28.761Z,20.59
2022-10-22T09:13:50.545Z,22.32
2022-10-22T09:15:15.452Z,19.21
2022-10-22T09:16:58.590Z,19.74
2022-10-22T09:18:44.378Z,20.41
2022-10-22T09:20:13.831Z,18.45
2022-10-22T09:21:55.609Z,22.06
2022-10-22T09:23:23.813Z,20.61
2022-10-22T09:24:46.698Z,20.11
2022-10-22T09:26:15.795Z,22.35
2022-10-22T09:27:36.995Z,19.34
2022-10-22T09:28:59.470Z,54.33
2022-10-22T09:30:22.434Z,16.27
2022-10-22T09:31:43.572Z,15.29
2022-10-22T09:33:25.449Z,17.36
2022-10-22T09:34:46.985Z,21.89
2022-10-22T09:36:10.837Z,24.84
2022-10-22T09:37:31.896Z,27.29
2022-10-22T09:38:53.300Z,19.08
2022-10-22T09:40:15.316Z,19.93
2022-10-22T09:41:36.562Z,23.48
2022-10-22T09:42:57.920Z,20.56
2022-10-22T09:44:19.511Z,17.17
2022-10-22T09:45:41.600Z,17.74
2022-10-22T09:47:06.747Z,18.27
2022-10-22T09:49:46.379Z,18.20
2022-10-22T09:51:14.618Z,15.46
2022-10-22T09:52:36.281Z,16.69
2022-10-22T09:54:00.815Z,17.07
2022-10-22T09:55:22.633Z,19.13
2022-10-22T09:56:59.954Z,15.26
2022-10-22T09:58:21.272Z,20.54
2022-10-22T09:59:43.209Z,18.06
2022-10-22T10:01:04.970Z,19.70
2022-10-22T10:02:44.407Z,14.48
2022-10-22T10:03:52.452Z,16.47
2022-10-22T10:05:18.987Z,22.21
2022-10-22T10:06:42.010Z,16.71
2022-10-22T10:09:24.958Z,15.63
2022-10-22T10:11:07.694Z,21.09
2022-10-22T10:12:47.427Z,17.92
2022-10-22T10:14:17.781Z,16.16
2022-10-22T10:17:20.199Z,21.07
2022-10-22T10:19:03.065Z,15.67
2022-10-22T10:20:46.251Z,17.04
2022-10-22T10:22:22.878Z,17.81
2022-10-22T10:23:59.255Z,19.02
2022-10-22T10:25:41.569Z,17.74
2022-10-22T10:27:14.322Z,20.51
2022-10-22T10:28:51.203Z,20.94
2022-10-22T10:30:21.552Z,14.90
2022-10-22T10:31:49.476Z,13.61
2022-10-22T10:33:23.542Z,17.54
2022-10-22T10:36:45.574Z,17.31
2022-10-22T10:38:29.614Z,20.01
2022-10-22T10:40:06.176Z,22.63
2022-10-22T10:41:46.674Z,14.77
2022-10-22T10:43:31.168Z,17.53
2022-10-22T10:45:14.397Z,19.55
2022-10-22T10:46:48.404Z,16.22
2022-10-22T10:48:29.224Z,15.25
2022-10-22T10:49:52.477Z,19.59
2022-10-22T10:51:35.498Z,26.09
2022-10-22T10:53:18.760Z,18.54
2022-10-22T10:54:59.529Z,16.97
2022-10-22T10:56:43.129Z,12.87
2022-10-22T11:00:00.911Z,13.41
2022-10-22T11:01:28.946Z,16.44
2022-10-22T11:03:10.317Z,18.68
2022-10-22T11:06:05.893Z,20.92
2022-10-22T11:10:30.010Z,12.06
2022-10-22T11:11:55.057Z,12.03
2022-10-22T11:13:31.275Z,16.45
2022-10-22T11:16:28.511Z,16.58
2022-10-22T11:17:50.081Z,18.10
2022-10-22T11:19:46.535Z,14.24
2022-10-22T11:21:05.226Z,11.12
2022-10-22T11:23:52.131Z,17.02
2022-10-22T11:25:20.138Z,12.72
2022-10-22T11:28:26.145Z,11.18
2022-10-22T11:29:51.232Z,11.71
2022-10-22T11:31:14.280Z,12.18
2022-10-22T11:32:38.854Z,12.83
2022-10-22T11:34:32.794Z,14.85
2022-10-22T11:36:51.195Z,17.39
2022-10-22T11:38:17.641Z,14.39
2022-10-22T11:40:00.576Z,13.97
2022-10-22T11:41:27.309Z,13.48
2022-10-22T11:44:22.278Z,37.19
2022-10-22T11:45:46.360Z,41.44
2022-10-22T11:47:19.111Z,29.72
2022-10-22T11:48:40.644Z,18.95
2022-10-22T11:50:17.725Z,14.14
2022-10-22T11:51:39.492Z,12.02
2022-10-22T11:53:03.574Z,12.62
2022-10-22T11:56:00.105Z,17.84
2022-10-22T11:58:40.158Z,14.22
2022-10-22T12:00:01.593Z,16.42
2022-10-22T12:02:43.616Z,17.68
2022-10-22T12:04:18.627Z,16.07
2022-10-22T12:05:39.953Z,14.69
2022-10-22T12:07:01.923Z,15.39
2022-10-22T12:08:25.150Z,14.94
2022-10-22T12:09:46.453Z,19.24
2022-10-22T12:11:23.029Z,16.29
2022-10-22T12:12:45.212Z,16.67
2022-10-22T12:14:26.820Z,15.30
2022-10-22T12:15:53.516Z,17.18
2022-10-22T12:17:15.189Z,17.56
2022-10-22T12:18:40.793Z,15.67
2022-10-22T12:20:07.421Z,19.68
2022-10-22T12:21:28.551Z,14.57
2022-10-22T12:22:49.527Z,15.14
2022-10-22T12:24:15.336Z,15.98
2022-10-22T12:25:37.556Z,16.57
2022-10-22T12:28:21.601Z,16.91
2022-10-22T12:31:04.176Z,12.76
2022-10-22T12:32:35.659Z,14.76
2022-10-22T12:33:58.045Z,16.78
2022-10-22T12:35:23.106Z,11.34
2022-10-22T12:36:45.950Z,12.66
2022-10-22T12:39:25.795Z,14.48
2022-10-22T12:40:48.775Z,16.81
2022-10-22T12:42:15.482Z,14.46
2022-10-22T12:43:37.324Z,15.91
2022-10-22T12:44:58.977Z,17.96
2022-10-22T12:46:20.549Z,16.28
2022-10-22T12:49:02.201Z,17.31
2022-10-22T12:50:33.405Z,16.48
2022-10-22T12:51:56.455Z,20.88
2022-10-22T12:53:24.260Z,42.12
2022-10-22T12:54:49.660Z,24.97
2022-10-22T12:56:14.024Z,22.40
2022-10-22T12:57:36.899Z,19.19
2022-10-22T12:59:04.195Z,15.80
2022-10-22T13:00:27.854Z,18.88
2022-10-22T13:01:49.451Z,15.43
2022-10-22T13:03:11.364Z,17.64
2022-10-22T13:04:34.367Z,19.86
2022-10-22T13:05:56.783Z,20.42
2022-10-22T13:07:21.163Z,17.10
2022-10-22T13:08:41.362Z,17.97
2022-10-22T13:10:04.507Z,14.08
2022-10-22T13:11:33.667Z,14.46
2022-10-22T13:12:55.974Z,16.37
2022-10-22T13:15:52.389Z,20.91
2022-10-22T13:17:18.309Z,20.36
2022-10-22T13:18:40.294Z,18.33
2022-10-22T13:20:04.450Z,18.12
2022-10-22T13:21:30.424Z,20.59
2022-10-22T13:23:01.677Z,19.00
2022-10-22T13:24:23.625Z,17.98
2022-10-22T13:25:49.401Z,14.40
2022-10-22T13:27:10.930Z,25.47
2022-10-22T13:28:32.563Z,21.73
2022-10-22T13:29:55.934Z,24.29
2022-10-22T13:31:27.239Z,20.72
2022-10-22T13:34:32.599Z,21.52
2022-10-22T13:35:55.539Z,20.44
2022-10-22T13:38:15.236Z,16.67
2022-10-22T13:39:38.629Z,21.48
2022-10-22T13:41:00.257Z,24.08
2022-10-22T13:42:22.004Z,21.87
2022-10-22T13:43:43.346Z,22.62
2022-10-22T13:45:05.755Z,27.80
2022-10-22T13:46:27.038Z,24.88
2022-10-22T13:47:52.647Z,24.27
2022-10-22T13:50:28.655Z,22.88
2022-10-22T13:51:50.164Z,22.36
2022-10-22T13:53:19.636Z,25.90
2022-10-22T13:54:41.116Z,31.11
2022-10-22T13:56:06.737Z,22.47
2022-10-22T13:57:27.972Z,27.38
2022-10-22T13:58:49.566Z,28.35
2022-10-22T14:01:35.717Z,27.84
2022-10-22T14:02:57.600Z,26.49
2022-10-22T14:04:18.928Z,30.36
2022-10-22T14:05:41.891Z,24.89
2022-10-22T14:07:04.152Z,27.14
2022-10-22T14:08:25.672Z,27.44
2022-10-22T14:09:47.210Z,27.38
2022-10-22T14:11:10.665Z,29.50
2022-10-22T14:12:31.675Z,32.01
2022-10-22T14:13:53.966Z,36.69
2022-10-22T14:15:16.944Z,41.61
2022-10-22T14:16:38.351Z,37.66
2022-10-22T14:18:00.693Z,45.58
2022-10-22T14:19:22.027Z,39.74
2022-10-22T14:20:43.750Z,37.52
2022-10-22T14:22:07.285Z,39.45
2022-10-22T14:23:29.245Z,41.27
2022-10-22T14:24:50.672Z,31.36
2022-10-22T14:26:24.300Z,41.33
2022-10-22T14:27:45.661Z,34.01
2022-10-22T14:29:11.124Z,43.28
2022-10-22T14:31:51.686Z,45.56
2022-10-22T14:33:31.416Z,35.34
2022-10-22T14:34:49.599Z,36.49
2022-10-22T14:37:22.823Z,44.70
2022-10-22T14:38:46.686Z,38.33
2022-10-22T14:40:10.602Z,37.52
2022-10-22T14:41:31.931Z,33.23
2022-10-22T14:42:53.240Z,45.80
2022-10-22T14:44:14.900Z,45.99
2022-10-22T14:45:36.787Z,47.29
2022-10-22T14:46:58.599Z,47.92
2022-10-22T14:48:20.657Z,39.86
2022-10-22T14:49:41.901Z,53.36
2022-10-22T14:51:05.642Z,57.00
2022-10-22T14:52:27.285Z,46.41
2022-10-22T14:53:50.491Z,42.91
2022-10-22T14:55:13.001Z,73.72
2022-10-22T14:56:34.398Z,63.51
2022-10-22T14:57:56.172Z,61.61
2022-10-22T14:59:17.376Z,59.48
2022-10-22T15:00:42.627Z,59.57
2022-10-22T15:02:04.289Z,56.44
2022-10-22T15:03:25.425Z,72.17
2022-10-22T15:04:48.180Z,112.41
2022-10-22T15:07:31.022Z,101.14
2022-10-22T15:08:52.290Z,107.53
2022-10-22T15:10:16.817Z,103.09
2022-10-22T15:11:38.985Z,106.68
2022-10-22T15:13:00.282Z,85.56
2022-10-22T15:14:21.451Z,84.52
2022-10-22T15:15:42.855Z,76.27
2022-10-22T15:17:03.890Z,87.41
2022-10-22T15:18:25.504Z,73.98
2022-10-22T15:19:46.681Z,92.56
2022-10-22T15:21:11.113Z,73.02
2022-10-22T15:22:32.431Z,74.14
2022-10-22T15:23:53.395Z,65.49
2022-10-22T15:25:14.355Z,85.57
2022-10-22T15:26:37.221Z,73.75
2022-10-22T15:29:21.687Z,114.36
2022-10-22T15:30:42.952Z,93.91
2022-10-22T15:32:04.621Z,97.98
2022-10-22T15:33:26.637Z,96.09
2022-10-22T15:34:47.967Z,103.02
2022-10-22T15:37:22.454Z,86.91
2022-10-22T15:38:44.018Z,80.40
2022-10-22T15:40:07.601Z,69.88
2022-10-22T15:41:29.587Z,74.53
2022-10-22T15:42:51.010Z,61.74
2022-10-22T15:44:18.256Z,70.03
2022-10-22T15:45:39.675Z,69.80
2022-10-22T15:47:02.733Z,61.69
2022-10-22T15:48:24.726Z,68.18
2022-10-22T15:49:46.584Z,71.80
2022-10-22T15:52:24.594Z,59.43
2022-10-22T15:53:53.777Z,68.69
2022-10-22T15:55:15.185Z,52.04
2022-10-22T15:56:36.917Z,47.41
2022-10-22T15:58:01.816Z,72.17
2022-10-22T16:00:42.960Z,45.94
2022-10-22T16:02:04.066Z,47.25
2022-10-22T16:03:25.503Z,51.28
2022-10-22T16:04:46.810Z,47.61
2022-10-22T16:06:08.276Z,50.46
2022-10-22T16:07:31.597Z,65.37
2022-10-22T16:08:53.823Z,172.74
2022-10-22T16:10:14.936Z,104.31
2022-10-22T16:11:38.086Z,69.11
2022-10-22T16:12:59.344Z,57.56
2022-10-22T16:14:20.835Z,49.89
2022-10-22T16:15:42.641Z,55.54
2022-10-22T16:17:03.840Z,42.27
2022-10-22T16:18:25.375Z,53.42
2022-10-22T16:19:47.260Z,56.12
2022-10-22T16:21:11.482Z,56.81
2022-10-22T16:22:33.011Z,60.99
2022-10-22T16:23:55.255Z,61.34
2022-10-22T16:25:16.943Z,52.94
2022-10-22T16:26:38.256Z,50.03
2022-10-22T16:27:59.519Z,49.11
2022-10-22T16:29:21.067Z,49.31
2022-10-22T16:30:42.572Z,49.04
2022-10-22T16:32:04.100Z,50.98
2022-10-22T16:33:25.357Z,62.86
2022-10-22T16:34:46.760Z,52.45
2022-10-22T16:37:21.504Z,67.88
2022-10-22T16:38:46.402Z,60.51
2022-10-22T16:40:08.965Z,58.90
2022-10-22T16:41:30.216Z,52.37
2022-10-22T16:42:52.062Z,58.06
2022-10-22T16:44:13.426Z,57.11
2022-10-22T16:45:34.711Z,49.09
2022-10-22T16:46:56.144Z,70.32
2022-10-22T16:48:17.401Z,55.07
2022-10-22T16:49:38.701Z,57.46
2022-10-22T16:52:17.130Z,74.19
2022-10-22T16:53:38.785Z,58.14
2022-10-22T16:55:00.369Z,62.26
2022-10-22T16:56:21.662Z,66.21
2022-10-22T16:57:43.519Z,58.49
2022-10-22T16:59:05.714Z,64.12
2022-10-22T17:00:27.249Z,57.07
2022-10-22T17:01:48.597Z,59.91
2022-10-22T17:03:10.784Z,55.36
2022-10-22T17:04:35.323Z,72.76
2022-10-22T17:05:59.795Z,65.69
2022-10-22T17:07:20.798Z,69.68
2022-10-22T17:08:43.816Z,72.33
2022-10-22T17:10:06.503Z,71.10
2022-10-22T17:11:28.377Z,77.02
2022-10-22T17:12:49.379Z,73.79
2022-10-22T17:14:10.411Z,78.54
2022-10-22T17:15:31.930Z,71.69
2022-10-22T17:16:53.981Z,63.18
2022-10-22T17:18:15.169Z,69.24
2022-10-22T17:19:36.216Z,58.80
2022-10-22T17:21:01.317Z,61.95
2022-10-22T17:22:22.517Z,59.38
2022-10-22T17:23:46.150Z,62.22
2022-10-22T17:25:14.181Z,54.93
2022-10-22T17:26:35.864Z,60.83
2022-10-22T17:28:53.862Z,56.63
2022-10-22T17:30:17.435Z,57.07
2022-10-22T17:31:39.454Z,55.50
2022-10-22T17:33:00.748Z,52.32
2022-10-22T17:34:22.564Z,57.94
2022-10-22T17:35:43.730Z,59.44
2022-10-22T17:37:05.162Z,59.08
2022-10-22T17:38:26.700Z,67.33
2022-10-22T17:39:49.945Z,68.34
2022-10-22T17:41:14.827Z,63.89
2022-10-22T17:42:35.803Z,59.84
2022-10-22T17:43:57.607Z,66.21
2022-10-22T17:45:19.174Z,67.72
2022-10-22T17:46:40.462Z,76.48
2022-10-22T17:48:01.539Z,71.33
2022-10-22T17:49:23.005Z,82.66
2022-10-22T17:50:48.206Z,65.11
2022-10-22T17:52:07.627Z,71.96
2022-10-22T17:53:28.698Z,75.22
2022-10-22T17:54:50.098Z,74.78
2022-10-22T17:56:14.089Z,73.87
2022-10-22T17:57:35.314Z,112.51
2022-10-22T17:58:56.292Z,79.27
2022-10-22T18:00:17.559Z,75.00
2022-10-22T18:01:38.724Z,74.84
2022-10-22T18:02:59.794Z,70.41
2022-10-22T18:04:21.159Z,64.33
2022-10-22T18:05:42.207Z,51.73
2022-10-22T18:08:14.858Z,56.39
2022-10-22T18:09:36.495Z,58.29
2022-10-22T18:11:00.729Z,51.92
2022-10-22T18:12:22.079Z,58.53
2022-10-22T18:13:43.624Z,56.99
2022-10-22T18:15:05.626Z,60.61
2022-10-22T18:16:26.861Z,63.86
2022-10-22T18:17:49.316Z,83.23
2022-10-22T18:19:11.106Z,73.46
2022-10-22T18:20:32.638Z,79.80
2022-10-22T18:21:54.570Z,76.34
2022-10-22T18:23:16.124Z,76.72
2022-10-22T18:24:37.823Z,82.28
2022-10-22T18:25:59.223Z,86.21
2022-10-22T18:27:20.468Z,73.32
2022-10-22T18:28:41.961Z,75.52
2022-10-22T18:30:03.989Z,83.74
2022-10-22T18:31:26.334Z,82.81
2022-10-22T18:32:47.388Z,84.16
2022-10-22T18:34:08.778Z,93.18
2022-10-22T18:35:31.746Z,87.14
2022-10-22T18:36:53.114Z,85.71
2022-10-22T18:38:14.661Z,77.98
2022-10-22T18:39:35.751Z,78.24
2022-10-22T18:40:56.951Z,84.98
2022-10-22T18:42:18.287Z,91.18
2022-10-22T18:43:39.788Z,81.52
2022-10-22T18:45:00.951Z,78.81
2022-10-22T18:46:22.792Z,76.61
2022-10-22T18:47:43.974Z,78.18
2022-10-22T18:49:05.574Z,77.16
2022-10-22T18:50:27.036Z,81.24
2022-10-22T18:51:48.361Z,78.11
2022-10-22T18:53:09.888Z,81.33
2022-10-22T18:54:31.179Z,80.44
2022-10-22T18:57:16.387Z,82.90
2022-10-22T18:58:39.674Z,81.96
2022-10-22T19:01:23.964Z,79.54
2022-10-22T19:04:06.283Z,75.87
2022-10-22T19:05:27.792Z,82.58
2022-10-22T19:06:49.436Z,79.11
2022-10-22T19:08:10.663Z,78.49
2022-10-22T19:09:32.203Z,74.35
2022-10-22T19:10:55.155Z,74.06
2022-10-22T19:12:16.201Z,76.34
2022-10-22T19:13:37.245Z,75.08
2022-10-22T19:14:58.784Z,68.78
2022-10-22T19:16:20.652Z,76.04
2022-10-22T19:17:42.022Z,75.73
2022-10-22T19:19:05.535Z,74.34
2022-10-22T19:20:26.876Z,69.14
2022-10-22T19:21:48.475Z,66.67
2022-10-22T19:23:10.076Z,67.83
2022-10-22T19:24:31.614Z,65.59
2022-10-22T19:27:15.057Z,73.44
2022-10-22T19:28:37.197Z,69.57